Airfield :
LOGIN :

Register | Disclaimer

   EN    FR    IT 

 










Legend :    VFR   Marginal VFR   IFR   Intensive IFR   Very Intensive IFR
Visi :
Ceiling :
>= 8 km
>= 3000ft
5 to 8 km
1000 to 3000 ft
1500m to 5 km
500 to 1000 ft
800 to 1500m
200 to 500 ft
< 800m
< 200 ft
Symbols :   Thunderstorms  Fog  Heavy snow  Heavy precipitations  Wind > 20 kt
SIGMETs :     Misc.  Thunderstorms  Icing  Turbulence  Mountain Waves  Volcanic Ashes







- Airport Elevation : 239 ft
- IATA code : VRN


LIPX - Villafranca Int. Verona

CURRENT METAR :
  • 230520Z 05003KT 360V070 9999 SCT050 SCT090 07/03 Q1016

EXPIRED METARs :
  • 230450Z 36003KT 320V040 9999 SCT090 06/02 Q1016
  • 230420Z 00000KT CAVOK 05/02 Q1016
  • 230350Z VRB01KT CAVOK 06/02 Q1015
  • 230320Z 18002KT CAVOK 06/02 Q1016
  • 230250Z VRB02KT CAVOK 06/03 Q1016
  • 230220Z 32003KT CAVOK 07/03 Q1016

TAF TAF LIPX
Valid from the 23 at 03:00 until the 23 at 12:00 UTC


230200Z 2303/2312 VRB05KT CAVOK
No reported NOTAMs for that airfield.



MET'MAP, your aeronautical weather chart ! - Copyright ORBIFLY December 2007 - Disclaimer

ORBIFLY MET'MAP TEAM :

Programming & Development : Alexandra Zaïnal
Concept & Development : Baudouin d'Aumeries
Co-Development & Prog : Marc-Olivier Méhu
Technical & hardware support : Manuel Goepfert

Contact : metmap@orbifly.com




SOURCES & CREDITS :

   NOAA